sensor_id;sensor_type;location;lat;lon;timestamp;P1;durP1;ratioP1;P2;durP2;ratioP2
18574;SDS011;9417;16.484;102.872;2022-12-24T00:00:48;38.22;;;25.90;;
18574;SDS011;9417;16.484;102.872;2022-12-24T00:02:59;35.35;;;25.40;;
18574;SDS011;9417;16.484;102.872;2022-12-24T00:05:07;36.75;;;25.17;;
18574;SDS011;9417;16.484;102.872;2022-12-24T00:07:16;37.08;;;25.45;;
18574;SDS011;9417;16.484;102.872;2022-12-24T00:09:23;36.00;;;25.15;;
18574;SDS011;9417;16.484;102.872;2022-12-24T00:11:30;33.03;;;25.13;;
18574;SDS011;9417;16.484;102.872;2022-12-24T00:13:37;41.92;;;27.17;;
18574;SDS011;9417;16.484;102.872;2022-12-24T00:15:44;44.15;;;29.13;;
18574;SDS011;9417;16.484;102.872;2022-12-24T00:17:51;50.40;;;34.17;;
18574;SDS011;9417;16.484;102.872;2022-12-24T00:19:58;48.17;;;34.58;;
18574;SDS011;9417;16.484;102.872;2022-12-24T00:22:06;57.00;;;38.67;;
18574;SDS011;9417;16.484;102.872;2022-12-24T00:24:15;52.50;;;36.97;;
18574;SDS011;9417;16.484;102.872;2022-12-24T00:26:22;50.65;;;34.67;;
18574;SDS011;9417;16.484;102.872;2022-12-24T00:28:29;47.22;;;34.55;;
18574;SDS011;9417;16.484;102.872;2022-12-24T00:30:36;54.47;;;36.47;;
18574;SDS011;9417;16.484;102.872;2022-12-24T00:32:44;59.45;;;38.53;;
18574;SDS011;9417;16.484;102.872;2022-12-24T00:34:50;62.55;;;41.00;;
18574;SDS011;9417;16.484;102.872;2022-12-24T00:36:57;59.25;;;41.30;;
18574;SDS011;9417;16.484;102.872;2022-12-24T00:39:04;67.15;;;42.50;;
18574;SDS011;9417;16.484;102.872;2022-12-24T00:41:13;60.88;;;38.42;;
18574;SDS011;9417;16.484;102.872;2022-12-24T00:43:31;58.03;;;38.92;;
18574;SDS011;9417;16.484;102.872;2022-12-24T00:45:38;56.50;;;37.03;;
18574;SDS011;9417;16.484;102.872;2022-12-24T00:47:45;51.72;;;35.13;;
18574;SDS011;9417;16.484;102.872;2022-12-24T00:49:52;48.80;;;33.95;;
18574;SDS011;9417;16.484;102.872;2022-12-24T00:51:59;48.60;;;32.35;;
18574;SDS011;9417;16.484;102.872;2022-12-24T00:54:06;46.28;;;31.65;;
18574;SDS011;9417;16.484;102.872;2022-12-24T00:56:15;48.05;;;30.50;;
18574;SDS011;9417;16.484;102.872;2022-12-24T00:58:22;44.45;;;30.55;;
18574;SDS011;9417;16.484;102.872;2022-12-24T01:00:29;40.97;;;28.55;;
18574;SDS011;9417;16.484;102.872;2022-12-24T01:02:37;43.83;;;29.08;;
18574;SDS011;9417;16.484;102.872;2022-12-24T01:04:44;40.97;;;27.30;;
18574;SDS011;9417;16.484;102.872;2022-12-24T01:07:07;35.55;;;24.80;;
18574;SDS011;9417;16.484;102.872;2022-12-24T01:09:14;34.25;;;23.75;;
18574;SDS011;9417;16.484;102.872;2022-12-24T01:11:23;36.03;;;22.20;;
18574;SDS011;9417;16.484;102.872;2022-12-24T01:13:30;33.30;;;22.60;;
18574;SDS011;9417;16.484;102.872;2022-12-24T01:15:37;35.35;;;23.30;;
18574;SDS011;9417;16.484;102.872;2022-12-24T01:17:44;32.53;;;23.70;;
18574;SDS011;9417;16.484;102.872;2022-12-24T01:19:51;35.55;;;22.92;;
18574;SDS011;9417;16.484;102.872;2022-12-24T01:21:58;32.63;;;23.23;;
18574;SDS011;9417;16.484;102.872;2022-12-24T01:24:05;33.75;;;23.90;;
18574;SDS011;9417;16.484;102.872;2022-12-24T01:26:15;34.05;;;23.17;;
18574;SDS011;9417;16.484;102.872;2022-12-24T01:28:23;36.95;;;25.27;;
18574;SDS011;9417;16.484;102.872;2022-12-24T01:30:30;36.75;;;23.77;;
18574;SDS011;9417;16.484;102.872;2022-12-24T01:32:41;38.03;;;24.40;;
18574;SDS011;9417;16.484;102.872;2022-12-24T01:34:48;32.92;;;21.83;;
18574;SDS011;9417;16.484;102.872;2022-12-24T01:36:55;30.88;;;21.15;;
18574;SDS011;9417;16.484;102.872;2022-12-24T01:39:02;28.45;;;19.55;;
18574;SDS011;9417;16.484;102.872;2022-12-24T01:41:13;29.40;;;20.70;;
18574;SDS011;9417;16.484;102.872;2022-12-24T01:43:39;25.35;;;17.73;;
18574;SDS011;9417;16.484;102.872;2022-12-24T01:45:46;29.45;;;16.98;;
18574;SDS011;9417;16.484;102.872;2022-12-24T01:47:54;27.70;;;17.10;;
18574;SDS011;9417;16.484;102.872;2022-12-24T01:50:02;24.38;;;16.88;;
18574;SDS011;9417;16.484;102.872;2022-12-24T01:52:20;21.83;;;14.25;;
18574;SDS011;9417;16.484;102.872;2022-12-24T01:54:29;23.83;;;14.27;;
18574;SDS011;9417;16.484;102.872;2022-12-24T01:56:40;19.60;;;14.57;;
18574;SDS011;9417;16.484;102.872;2022-12-24T01:58:53;23.92;;;13.05;;
18574;SDS011;9417;16.484;102.872;2022-12-24T02:01:03;19.65;;;14.30;;
18574;SDS011;9417;16.484;102.872;2022-12-24T02:03:11;20.42;;;14.20;;
18574;SDS011;9417;16.484;102.872;2022-12-24T02:05:20;22.10;;;14.65;;
18574;SDS011;9417;16.484;102.872;2022-12-24T02:07:32;17.35;;;12.88;;
18574;SDS011;9417;16.484;102.872;2022-12-24T02:09:39;18.60;;;12.82;;
18574;SDS011;9417;16.484;102.872;2022-12-24T02:11:47;20.77;;;14.20;;
18574;SDS011;9417;16.484;102.872;2022-12-24T02:13:56;19.20;;;13.93;;
18574;SDS011;9417;16.484;102.872;2022-12-24T02:16:07;17.90;;;13.52;;
18574;SDS011;9417;16.484;102.872;2022-12-24T02:18:20;21.55;;;15.43;;
18574;SDS011;9417;16.484;102.872;2022-12-24T02:20:56;19.58;;;13.63;;
18574;SDS011;9417;16.484;102.872;2022-12-24T02:23:37;21.85;;;14.05;;
18574;SDS011;9417;16.484;102.872;2022-12-24T02:26:04;19.88;;;13.50;;
18574;SDS011;9417;16.484;102.872;2022-12-24T02:28:26;21.67;;;14.18;;
18574;SDS011;9417;16.484;102.872;2022-12-24T02:30:53;17.77;;;11.93;;
18574;SDS011;9417;16.484;102.872;2022-12-24T02:33:08;15.18;;;10.70;;
18574;SDS011;9417;16.484;102.872;2022-12-24T02:35:24;19.73;;;12.02;;
18574;SDS011;9417;16.484;102.872;2022-12-24T02:37:39;17.52;;;11.40;;
18574;SDS011;9417;16.484;102.872;2022-12-24T02:39:50;16.47;;;11.43;;
18574;SDS011;9417;16.484;102.872;2022-12-24T02:42:02;16.25;;;11.57;;
18574;SDS011;9417;16.484;102.872;2022-12-24T02:44:13;17.38;;;11.73;;
18574;SDS011;9417;16.484;102.872;2022-12-24T02:46:24;21.98;;;12.48;;
18574;SDS011;9417;16.484;102.872;2022-12-24T02:48:33;20.10;;;11.68;;
18574;SDS011;9417;16.484;102.872;2022-12-24T02:50:53;16.60;;;11.77;;
18574;SDS011;9417;16.484;102.872;2022-12-24T02:53:08;17.80;;;12.02;;
18574;SDS011;9417;16.484;102.872;2022-12-24T02:55:15;19.13;;;11.25;;
18574;SDS011;9417;16.484;102.872;2022-12-24T02:57:27;18.75;;;11.77;;
18574;SDS011;9417;16.484;102.872;2022-12-24T02:59:48;16.67;;;10.90;;
18574;SDS011;9417;16.484;102.872;2022-12-24T03:02:07;15.98;;;11.45;;
18574;SDS011;9417;16.484;102.872;2022-12-24T03:04:22;15.68;;;10.68;;
18574;SDS011;9417;16.484;102.872;2022-12-24T03:06:45;14.07;;;10.50;;
18574;SDS011;9417;16.484;102.872;2022-12-24T03:09:01;13.43;;;9.40;;
18574;SDS011;9417;16.484;102.872;2022-12-24T03:11:13;15.05;;;10.48;;
18574;SDS011;9417;16.484;102.872;2022-12-24T03:13:20;17.42;;;11.05;;
18574;SDS011;9417;16.484;102.872;2022-12-24T03:15:29;18.80;;;10.90;;
18574;SDS011;9417;16.484;102.872;2022-12-24T03:17:39;17.13;;;10.43;;
18574;SDS011;9417;16.484;102.872;2022-12-24T03:19:48;12.80;;;10.40;;
18574;SDS011;9417;16.484;102.872;2022-12-24T03:21:56;14.00;;;10.25;;
18574;SDS011;9417;16.484;102.872;2022-12-24T03:24:03;14.57;;;10.52;;
18574;SDS011;9417;16.484;102.872;2022-12-24T03:26:11;18.58;;;11.32;;
18574;SDS011;9417;16.484;102.872;2022-12-24T03:28:22;17.67;;;10.75;;
18574;SDS011;9417;16.484;102.872;2022-12-24T03:30:32;15.25;;;9.73;;
18574;SDS011;9417;16.484;102.872;2022-12-24T03:32:41;13.70;;;9.88;;
18574;SDS011;9417;16.484;102.872;2022-12-24T03:34:49;14.55;;;8.93;;
18574;SDS011;9417;16.484;102.872;2022-12-24T03:36:56;13.75;;;9.00;;
18574;SDS011;9417;16.484;102.872;2022-12-24T03:39:03;13.85;;;8.38;;
18574;SDS011;9417;16.484;102.872;2022-12-24T03:41:10;9.85;;;7.70;;
18574;SDS011;9417;16.484;102.872;2022-12-24T03:43:17;15.15;;;8.88;;
18574;SDS011;9417;16.484;102.872;2022-12-24T03:45:24;13.15;;;8.20;;
18574;SDS011;9417;16.484;102.872;2022-12-24T03:47:31;14.70;;;8.73;;
18574;SDS011;9417;16.484;102.872;2022-12-24T03:49:40;13.70;;;8.15;;
18574;SDS011;9417;16.484;102.872;2022-12-24T03:51:47;13.73;;;8.25;;
18574;SDS011;9417;16.484;102.872;2022-12-24T03:53:54;12.68;;;8.20;;
18574;SDS011;9417;16.484;102.872;2022-12-24T03:56:02;11.38;;;8.05;;
18574;SDS011;9417;16.484;102.872;2022-12-24T03:58:09;11.85;;;7.95;;
18574;SDS011;9417;16.484;102.872;2022-12-24T04:00:16;12.57;;;7.63;;
18574;SDS011;9417;16.484;102.872;2022-12-24T04:02:24;11.80;;;6.88;;
18574;SDS011;9417;16.484;102.872;2022-12-24T04:04:31;9.73;;;7.05;;
18574;SDS011;9417;16.484;102.872;2022-12-24T04:06:41;8.90;;;7.10;;
18574;SDS011;9417;16.484;102.872;2022-12-24T04:08:48;9.32;;;7.32;;
18574;SDS011;9417;16.484;102.872;2022-12-24T04:10:55;11.65;;;7.07;;
18574;SDS011;9417;16.484;102.872;2022-12-24T04:13:10;14.05;;;7.28;;
18574;SDS011;9417;16.484;102.872;2022-12-24T04:15:17;12.45;;;7.50;;
18574;SDS011;9417;16.484;102.872;2022-12-24T04:17:24;10.52;;;7.20;;
18574;SDS011;9417;16.484;102.872;2022-12-24T04:19:31;10.95;;;7.57;;
18574;SDS011;9417;16.484;102.872;2022-12-24T04:21:38;13.80;;;7.60;;
18574;SDS011;9417;16.484;102.872;2022-12-24T04:23:47;11.45;;;7.47;;
18574;SDS011;9417;16.484;102.872;2022-12-24T04:25:54;11.25;;;7.30;;
18574;SDS011;9417;16.484;102.872;2022-12-24T04:28:03;10.95;;;6.97;;
18574;SDS011;9417;16.484;102.872;2022-12-24T04:30:10;11.15;;;7.22;;
18574;SDS011;9417;16.484;102.872;2022-12-24T04:32:18;13.43;;;7.78;;
18574;SDS011;9417;16.484;102.872;2022-12-24T04:34:25;10.88;;;7.15;;
18574;SDS011;9417;16.484;102.872;2022-12-24T04:36:32;12.20;;;7.47;;
18574;SDS011;9417;16.484;102.872;2022-12-24T04:38:41;10.15;;;6.70;;
18574;SDS011;9417;16.484;102.872;2022-12-24T04:40:55;9.52;;;6.82;;
18574;SDS011;9417;16.484;102.872;2022-12-24T04:43:03;10.25;;;6.82;;
18574;SDS011;9417;16.484;102.872;2022-12-24T04:45:10;11.93;;;7.18;;
18574;SDS011;9417;16.484;102.872;2022-12-24T04:47:18;10.95;;;6.57;;
18574;SDS011;9417;16.484;102.872;2022-12-24T04:49:25;9.13;;;6.65;;
18574;SDS011;9417;16.484;102.872;2022-12-24T04:51:32;9.25;;;6.53;;
18574;SDS011;9417;16.484;102.872;2022-12-24T04:53:41;8.68;;;6.65;;
18574;SDS011;9417;16.484;102.872;2022-12-24T04:55:48;9.63;;;6.82;;
18574;SDS011;9417;16.484;102.872;2022-12-24T04:57:55;8.82;;;6.70;;
18574;SDS011;9417;16.484;102.872;2022-12-24T05:00:03;10.38;;;7.22;;
18574;SDS011;9417;16.484;102.872;2022-12-24T05:02:10;14.05;;;7.35;;
18574;SDS011;9417;16.484;102.872;2022-12-24T05:04:18;11.43;;;6.63;;
18574;SDS011;9417;16.484;102.872;2022-12-24T05:06:25;12.85;;;6.72;;
18574;SDS011;9417;16.484;102.872;2022-12-24T05:08:34;9.15;;;6.45;;
18574;SDS011;9417;16.484;102.872;2022-12-24T05:10:42;9.68;;;6.10;;
18574;SDS011;9417;16.484;102.872;2022-12-24T05:12:49;11.90;;;6.32;;
18574;SDS011;9417;16.484;102.872;2022-12-24T05:14:56;10.40;;;6.05;;
18574;SDS011;9417;16.484;102.872;2022-12-24T05:17:03;8.48;;;6.63;;
18574;SDS011;9417;16.484;102.872;2022-12-24T05:19:11;9.13;;;6.50;;
18574;SDS011;9417;16.484;102.872;2022-12-24T05:21:18;11.05;;;6.20;;
18574;SDS011;9417;16.484;102.872;2022-12-24T05:23:27;7.70;;;5.50;;
18574;SDS011;9417;16.484;102.872;2022-12-24T05:25:53;10.20;;;6.82;;
18574;SDS011;9417;16.484;102.872;2022-12-24T05:28:16;11.40;;;6.88;;
18574;SDS011;9417;16.484;102.872;2022-12-24T05:30:24;10.93;;;6.40;;
18574;SDS011;9417;16.484;102.872;2022-12-24T05:32:31;9.18;;;6.20;;
18574;SDS011;9417;16.484;102.872;2022-12-24T05:34:39;9.63;;;6.22;;
18574;SDS011;9417;16.484;102.872;2022-12-24T05:36:46;10.18;;;7.15;;
18574;SDS011;9417;16.484;102.872;2022-12-24T05:38:53;9.57;;;7.03;;
18574;SDS011;9417;16.484;102.872;2022-12-24T05:41:01;9.57;;;6.97;;
18574;SDS011;9417;16.484;102.872;2022-12-24T05:43:08;11.02;;;6.60;;
18574;SDS011;9417;16.484;102.872;2022-12-24T05:45:15;9.30;;;6.63;;
18574;SDS011;9417;16.484;102.872;2022-12-24T05:47:22;8.75;;;6.20;;
18574;SDS011;9417;16.484;102.872;2022-12-24T05:49:29;7.75;;;5.88;;
18574;SDS011;9417;16.484;102.872;2022-12-24T05:51:36;9.50;;;6.13;;
18574;SDS011;9417;16.484;102.872;2022-12-24T05:53:44;9.68;;;5.85;;
18574;SDS011;9417;16.484;102.872;2022-12-24T05:55:51;8.15;;;5.97;;
18574;SDS011;9417;16.484;102.872;2022-12-24T05:58:00;7.53;;;6.00;;
18574;SDS011;9417;16.484;102.872;2022-12-24T06:00:07;8.05;;;6.10;;
18574;SDS011;9417;16.484;102.872;2022-12-24T06:02:15;9.95;;;5.78;;
18574;SDS011;9417;16.484;102.872;2022-12-24T06:04:22;9.15;;;5.93;;
18574;SDS011;9417;16.484;102.872;2022-12-24T06:06:30;15.13;;;7.18;;
18574;SDS011;9417;16.484;102.872;2022-12-24T06:08:38;9.15;;;6.07;;
18574;SDS011;9417;16.484;102.872;2022-12-24T06:10:45;8.23;;;5.72;;
18574;SDS011;9417;16.484;102.872;2022-12-24T06:12:52;10.18;;;6.25;;
18574;SDS011;9417;16.484;102.872;2022-12-24T06:15:02;8.40;;;6.22;;
18574;SDS011;9417;16.484;102.872;2022-12-24T06:17:09;9.40;;;5.35;;
18574;SDS011;9417;16.484;102.872;2022-12-24T06:19:16;9.95;;;5.85;;
18574;SDS011;9417;16.484;102.872;2022-12-24T06:21:23;8.80;;;5.38;;
18574;SDS011;9417;16.484;102.872;2022-12-24T06:23:31;11.52;;;5.30;;
18574;SDS011;9417;16.484;102.872;2022-12-24T06:25:40;8.27;;;5.47;;
18574;SDS011;9417;16.484;102.872;2022-12-24T06:27:46;8.60;;;5.78;;
18574;SDS011;9417;16.484;102.872;2022-12-24T06:29:54;8.90;;;5.47;;
18574;SDS011;9417;16.484;102.872;2022-12-24T06:32:02;6.82;;;5.40;;
18574;SDS011;9417;16.484;102.872;2022-12-24T06:34:09;9.05;;;5.45;;
18574;SDS011;9417;16.484;102.872;2022-12-24T06:36:17;12.98;;;5.13;;
18574;SDS011;9417;16.484;102.872;2022-12-24T06:38:25;6.78;;;5.00;;
18574;SDS011;9417;16.484;102.872;2022-12-24T06:40:36;8.55;;;5.45;;
18574;SDS011;9417;16.484;102.872;2022-12-24T06:42:43;7.45;;;5.22;;
18574;SDS011;9417;16.484;102.872;2022-12-24T06:44:50;9.32;;;5.82;;
18574;SDS011;9417;16.484;102.872;2022-12-24T06:46:57;10.20;;;5.97;;
18574;SDS011;9417;16.484;102.872;2022-12-24T06:49:06;7.25;;;5.80;;
18574;SDS011;9417;16.484;102.872;2022-12-24T06:51:13;7.82;;;5.00;;
18574;SDS011;9417;16.484;102.872;2022-12-24T06:53:22;7.03;;;4.53;;
18574;SDS011;9417;16.484;102.872;2022-12-24T06:55:28;8.30;;;5.18;;
18574;SDS011;9417;16.484;102.872;2022-12-24T06:57:36;6.82;;;5.00;;
18574;SDS011;9417;16.484;102.872;2022-12-24T06:59:43;6.55;;;4.78;;
18574;SDS011;9417;16.484;102.872;2022-12-24T07:01:50;8.95;;;6.13;;
18574;SDS011;9417;16.484;102.872;2022-12-24T07:03:58;13.70;;;9.50;;
18574;SDS011;9417;16.484;102.872;2022-12-24T07:06:07;8.48;;;6.55;;
18574;SDS011;9417;16.484;102.872;2022-12-24T07:08:20;7.80;;;4.40;;
18574;SDS011;9417;16.484;102.872;2022-12-24T07:10:27;7.55;;;4.63;;
18574;SDS011;9417;16.484;102.872;2022-12-24T07:12:33;6.60;;;4.82;;
18574;SDS011;9417;16.484;102.872;2022-12-24T07:14:40;7.32;;;4.82;;
18574;SDS011;9417;16.484;102.872;2022-12-24T07:16:47;8.05;;;4.68;;
18574;SDS011;9417;16.484;102.872;2022-12-24T07:19:00;8.10;;;4.95;;
18574;SDS011;9417;16.484;102.872;2022-12-24T07:21:09;14.75;;;4.60;;
18574;SDS011;9417;16.484;102.872;2022-12-24T07:23:16;7.70;;;4.63;;
18574;SDS011;9417;16.484;102.872;2022-12-24T07:25:23;6.97;;;4.88;;
18574;SDS011;9417;16.484;102.872;2022-12-24T07:27:30;9.27;;;4.78;;
18574;SDS011;9417;16.484;102.872;2022-12-24T07:29:37;8.05;;;4.97;;
18574;SDS011;9417;16.484;102.872;2022-12-24T07:31:44;9.10;;;4.90;;
18574;SDS011;9417;16.484;102.872;2022-12-24T07:33:51;6.43;;;4.55;;
18574;SDS011;9417;16.484;102.872;2022-12-24T07:35:59;6.15;;;4.25;;
18574;SDS011;9417;16.484;102.872;2022-12-24T07:38:08;7.57;;;4.28;;
18574;SDS011;9417;16.484;102.872;2022-12-24T07:40:15;5.80;;;4.20;;
18574;SDS011;9417;16.484;102.872;2022-12-24T07:42:22;9.68;;;4.43;;
18574;SDS011;9417;16.484;102.872;2022-12-24T07:44:29;6.93;;;4.60;;
18574;SDS011;9417;16.484;102.872;2022-12-24T07:46:36;9.10;;;4.88;;
18574;SDS011;9417;16.484;102.872;2022-12-24T07:48:43;8.02;;;4.47;;
18574;SDS011;9417;16.484;102.872;2022-12-24T07:50:50;6.55;;;4.45;;
18574;SDS011;9417;16.484;102.872;2022-12-24T07:52:57;6.13;;;4.57;;
18574;SDS011;9417;16.484;102.872;2022-12-24T07:55:06;6.85;;;4.55;;
18574;SDS011;9417;16.484;102.872;2022-12-24T07:57:14;6.72;;;4.68;;
18574;SDS011;9417;16.484;102.872;2022-12-24T07:59:21;7.15;;;4.22;;
18574;SDS011;9417;16.484;102.872;2022-12-24T08:01:28;10.13;;;5.07;;
18574;SDS011;9417;16.484;102.872;2022-12-24T08:03:35;8.38;;;4.93;;
18574;SDS011;9417;16.484;102.872;2022-12-24T08:05:42;6.32;;;4.68;;
18574;SDS011;9417;16.484;102.872;2022-12-24T08:07:49;8.88;;;4.90;;
18574;SDS011;9417;16.484;102.872;2022-12-24T08:09:56;7.93;;;4.90;;
18574;SDS011;9417;16.484;102.872;2022-12-24T08:12:05;6.57;;;4.40;;
18574;SDS011;9417;16.484;102.872;2022-12-24T08:14:13;6.32;;;4.25;;
18574;SDS011;9417;16.484;102.872;2022-12-24T08:16:20;7.25;;;4.93;;
18574;SDS011;9417;16.484;102.872;2022-12-24T08:18:28;6.50;;;4.43;;
18574;SDS011;9417;16.484;102.872;2022-12-24T08:20:36;8.57;;;4.85;;
18574;SDS011;9417;16.484;102.872;2022-12-24T08:22:44;12.35;;;4.75;;
18574;SDS011;9417;16.484;102.872;2022-12-24T08:24:51;9.68;;;4.55;;
18574;SDS011;9417;16.484;102.872;2022-12-24T08:26:58;6.88;;;4.72;;
18574;SDS011;9417;16.484;102.872;2022-12-24T08:29:06;10.02;;;5.25;;
18574;SDS011;9417;16.484;102.872;2022-12-24T08:31:14;7.63;;;5.10;;
18574;SDS011;9417;16.484;102.872;2022-12-24T08:33:21;6.88;;;4.72;;
18574;SDS011;9417;16.484;102.872;2022-12-24T08:35:28;7.78;;;5.07;;
18574;SDS011;9417;16.484;102.872;2022-12-24T08:37:35;7.15;;;4.63;;
18574;SDS011;9417;16.484;102.872;2022-12-24T08:39:42;12.07;;;5.10;;
18574;SDS011;9417;16.484;102.872;2022-12-24T08:41:49;8.52;;;5.25;;
18574;SDS011;9417;16.484;102.872;2022-12-24T08:43:57;7.40;;;5.20;;
18574;SDS011;9417;16.484;102.872;2022-12-24T08:46:06;7.40;;;4.80;;
18574;SDS011;9417;16.484;102.872;2022-12-24T08:48:14;9.65;;;5.45;;
18574;SDS011;9417;16.484;102.872;2022-12-24T08:50:21;7.95;;;5.40;;
18574;SDS011;9417;16.484;102.872;2022-12-24T08:52:28;7.53;;;5.38;;
18574;SDS011;9417;16.484;102.872;2022-12-24T08:54:35;8.05;;;5.60;;
18574;SDS011;9417;16.484;102.872;2022-12-24T08:56:42;7.57;;;4.70;;
18574;SDS011;9417;16.484;102.872;2022-12-24T08:58:49;9.82;;;5.20;;
18574;SDS011;9417;16.484;102.872;2022-12-24T09:00:56;11.80;;;5.70;;
18574;SDS011;9417;16.484;102.872;2022-12-24T09:03:04;7.75;;;5.45;;
18574;SDS011;9417;16.484;102.872;2022-12-24T09:05:11;10.20;;;5.80;;
18574;SDS011;9417;16.484;102.872;2022-12-24T09:07:18;11.10;;;6.07;;
18574;SDS011;9417;16.484;102.872;2022-12-24T09:09:25;7.93;;;5.60;;
18574;SDS011;9417;16.484;102.872;2022-12-24T09:11:39;40.47;;;24.55;;
18574;SDS011;9417;16.484;102.872;2022-12-24T09:13:46;16.00;;;9.10;;
18574;SDS011;9417;16.484;102.872;2022-12-24T09:15:56;12.57;;;8.57;;
18574;SDS011;9417;16.484;102.872;2022-12-24T09:18:05;10.38;;;6.82;;
18574;SDS011;9417;16.484;102.872;2022-12-24T09:20:13;11.07;;;6.88;;
18574;SDS011;9417;16.484;102.872;2022-12-24T09:22:20;12.40;;;7.18;;
18574;SDS011;9417;16.484;102.872;2022-12-24T09:24:27;10.43;;;8.13;;
18574;SDS011;9417;16.484;102.872;2022-12-24T09:26:35;10.25;;;8.23;;
18574;SDS011;9417;16.484;102.872;2022-12-24T09:28:44;11.00;;;6.15;;
18574;SDS011;9417;16.484;102.872;2022-12-24T09:30:55;8.40;;;6.20;;
18574;SDS011;9417;16.484;102.872;2022-12-24T09:33:03;11.77;;;7.15;;
18574;SDS011;9417;16.484;102.872;2022-12-24T09:35:12;19.02;;;8.15;;
18574;SDS011;9417;16.484;102.872;2022-12-24T09:37:19;8.70;;;6.38;;
18574;SDS011;9417;16.484;102.872;2022-12-24T09:39:26;8.63;;;6.22;;
18574;SDS011;9417;16.484;102.872;2022-12-24T09:41:38;8.85;;;5.80;;
18574;SDS011;9417;16.484;102.872;2022-12-24T09:43:54;10.15;;;6.30;;
18574;SDS011;9417;16.484;102.872;2022-12-24T09:46:06;7.82;;;6.38;;
18574;SDS011;9417;16.484;102.872;2022-12-24T09:48:21;9.55;;;6.32;;
18574;SDS011;9417;16.484;102.872;2022-12-24T09:50:33;12.77;;;7.32;;
18574;SDS011;9417;16.484;102.872;2022-12-24T09:52:43;10.10;;;6.60;;
18574;SDS011;9417;16.484;102.872;2022-12-24T09:54:53;10.20;;;6.88;;
18574;SDS011;9417;16.484;102.872;2022-12-24T09:57:06;11.75;;;6.55;;
18574;SDS011;9417;16.484;102.872;2022-12-24T09:59:19;10.30;;;7.28;;
18574;SDS011;9417;16.484;102.872;2022-12-24T10:01:29;10.25;;;6.43;;
18574;SDS011;9417;16.484;102.872;2022-12-24T10:03:39;11.68;;;7.65;;
18574;SDS011;9417;16.484;102.872;2022-12-24T10:05:50;9.77;;;7.22;;
18574;SDS011;9417;16.484;102.872;2022-12-24T10:08:08;10.35;;;7.70;;
18574;SDS011;9417;16.484;102.872;2022-12-24T10:10:25;12.15;;;7.57;;
18574;SDS011;9417;16.484;102.872;2022-12-24T10:12:36;11.55;;;7.78;;
18574;SDS011;9417;16.484;102.872;2022-12-24T10:14:57;11.35;;;7.50;;
18574;SDS011;9417;16.484;102.872;2022-12-24T10:17:19;12.43;;;8.50;;
18574;SDS011;9417;16.484;102.872;2022-12-24T10:19:38;11.77;;;8.15;;
18574;SDS011;9417;16.484;102.872;2022-12-24T10:21:56;12.75;;;9.00;;
18574;SDS011;9417;16.484;102.872;2022-12-24T10:24:11;14.80;;;9.30;;
18574;SDS011;9417;16.484;102.872;2022-12-24T10:26:22;16.07;;;9.33;;
18574;SDS011;9417;16.484;102.872;2022-12-24T10:28:41;12.85;;;9.95;;
18574;SDS011;9417;16.484;102.872;2022-12-24T10:30:52;13.80;;;9.40;;
18574;SDS011;9417;16.484;102.872;2022-12-24T10:33:08;19.48;;;10.00;;
18574;SDS011;9417;16.484;102.872;2022-12-24T10:35:22;14.93;;;10.10;;
18574;SDS011;9417;16.484;102.872;2022-12-24T10:37:32;12.90;;;9.45;;
18574;SDS011;9417;16.484;102.872;2022-12-24T10:39:39;15.80;;;10.40;;
18574;SDS011;9417;16.484;102.872;2022-12-24T10:41:47;15.65;;;10.23;;
18574;SDS011;9417;16.484;102.872;2022-12-24T10:43:57;17.20;;;10.45;;
18574;SDS011;9417;16.484;102.872;2022-12-24T10:46:05;19.17;;;11.43;;
18574;SDS011;9417;16.484;102.872;2022-12-24T10:48:24;20.02;;;12.23;;
18574;SDS011;9417;16.484;102.872;2022-12-24T10:50:36;21.88;;;12.43;;
18574;SDS011;9417;16.484;102.872;2022-12-24T10:52:47;21.50;;;12.85;;
18574;SDS011;9417;16.484;102.872;2022-12-24T10:55:04;21.58;;;13.90;;
18574;SDS011;9417;16.484;102.872;2022-12-24T10:57:22;19.45;;;12.27;;
18574;SDS011;9417;16.484;102.872;2022-12-24T10:59:35;21.25;;;13.55;;
18574;SDS011;9417;16.484;102.872;2022-12-24T11:01:47;23.67;;;14.15;;
18574;SDS011;9417;16.484;102.872;2022-12-24T11:03:58;23.50;;;12.60;;
18574;SDS011;9417;16.484;102.872;2022-12-24T11:06:09;21.17;;;11.40;;
18574;SDS011;9417;16.484;102.872;2022-12-24T11:08:18;14.50;;;9.60;;
18574;SDS011;9417;16.484;102.872;2022-12-24T11:10:25;15.50;;;9.68;;
18574;SDS011;9417;16.484;102.872;2022-12-24T11:12:32;14.85;;;7.95;;
18574;SDS011;9417;16.484;102.872;2022-12-24T11:14:42;11.65;;;7.35;;
18574;SDS011;9417;16.484;102.872;2022-12-24T11:16:50;11.02;;;7.80;;
18574;SDS011;9417;16.484;102.872;2022-12-24T11:18:58;14.77;;;7.70;;
18574;SDS011;9417;16.484;102.872;2022-12-24T11:21:09;12.98;;;7.78;;
18574;SDS011;9417;16.484;102.872;2022-12-24T11:23:16;11.98;;;7.60;;
18574;SDS011;9417;16.484;102.872;2022-12-24T11:25:23;17.17;;;7.65;;
18574;SDS011;9417;16.484;102.872;2022-12-24T11:27:38;13.02;;;7.07;;
18574;SDS011;9417;16.484;102.872;2022-12-24T11:29:47;9.90;;;6.88;;
18574;SDS011;9417;16.484;102.872;2022-12-24T11:32:09;14.13;;;7.18;;
18574;SDS011;9417;16.484;102.872;2022-12-24T11:34:23;15.15;;;7.15;;
18574;SDS011;9417;16.484;102.872;2022-12-24T11:36:33;10.68;;;7.07;;
18574;SDS011;9417;16.484;102.872;2022-12-24T11:38:40;10.65;;;6.32;;
18574;SDS011;9417;16.484;102.872;2022-12-24T11:40:47;9.45;;;6.40;;
18574;SDS011;9417;16.484;102.872;2022-12-24T11:43:02;9.73;;;6.40;;
18574;SDS011;9417;16.484;102.872;2022-12-24T11:45:17;9.07;;;6.15;;
18574;SDS011;9417;16.484;102.872;2022-12-24T11:47:34;13.07;;;6.53;;
18574;SDS011;9417;16.484;102.872;2022-12-24T11:49:41;10.43;;;6.15;;
18574;SDS011;9417;16.484;102.872;2022-12-24T11:54:26;10.10;;;6.57;;
18574;SDS011;9417;16.484;102.872;2022-12-24T11:56:39;11.80;;;7.60;;
18574;SDS011;9417;16.484;102.872;2022-12-24T11:58:50;10.38;;;7.35;;
18574;SDS011;9417;16.484;102.872;2022-12-24T12:01:02;17.20;;;7.43;;
18574;SDS011;9417;16.484;102.872;2022-12-24T12:03:24;12.98;;;8.18;;
18574;SDS011;9417;16.484;102.872;2022-12-24T12:05:35;11.77;;;7.80;;
18574;SDS011;9417;16.484;102.872;2022-12-24T12:07:46;16.42;;;7.90;;
18574;SDS011;9417;16.484;102.872;2022-12-24T12:09:56;12.15;;;7.90;;
18574;SDS011;9417;16.484;102.872;2022-12-24T12:14:19;10.63;;;7.20;;
18574;SDS011;9417;16.484;102.872;2022-12-24T12:16:31;9.60;;;6.13;;
18574;SDS011;9417;16.484;102.872;2022-12-24T12:19:02;8.93;;;6.13;;
18574;SDS011;9417;16.484;102.872;2022-12-24T12:21:17;10.10;;;6.22;;
18574;SDS011;9417;16.484;102.872;2022-12-24T12:23:30;9.25;;;5.78;;
18574;SDS011;9417;16.484;102.872;2022-12-24T12:27:50;11.38;;;5.55;;
18574;SDS011;9417;16.484;102.872;2022-12-24T12:30:00;9.10;;;6.45;;
18574;SDS011;9417;16.484;102.872;2022-12-24T12:32:11;9.27;;;6.13;;
18574;SDS011;9417;16.484;102.872;2022-12-24T12:34:30;9.20;;;5.88;;
18574;SDS011;9417;16.484;102.872;2022-12-24T12:36:41;12.57;;;5.68;;
18574;SDS011;9417;16.484;102.872;2022-12-24T12:38:52;11.00;;;5.78;;
18574;SDS011;9417;16.484;102.872;2022-12-24T12:41:03;9.73;;;6.07;;
18574;SDS011;9417;16.484;102.872;2022-12-24T12:43:30;12.70;;;5.57;;
18574;SDS011;9417;16.484;102.872;2022-12-24T12:45:47;8.02;;;5.20;;